ZKDAY RCKH-RCWA
Flight info
| Callsign | ZKDAY |
|---|---|
| Flight time | 0h 45m |
| Altitude | 1500 |
| Route | VFR |
| Aircraft | C172/L-SGO/C |
Departure
| Time | 2026-04-29 20:26 |
|---|---|
| Airport | Kaohsiung International Airport (RCKH) |
Arrival
| Time | 2026-04-29 21:12 |
|---|---|
| Airport | Wang'an Airport (RCWA) |
| Time | Latitude | Longitude | Altitude | Speed | Heading |
|---|---|---|---|---|---|
| 2026-04-29 20:13 | 22.57515 | 120.33668 | 25 ft | 0 kts | 307° |
| 2026-04-29 20:14 | 22.57511 | 120.33674 | 25 ft | 0 kts | 307° |
| 2026-04-29 20:22 | 22.57512 | 120.33673 | 25 ft | 1 kts | 301° |
| 2026-04-29 20:22 | 22.57508 | 120.33616 | 25 ft | 10 kts | 296° |
| 2026-04-29 20:22 | 22.57559 | 120.33554 | 25 ft | 12 kts | 317° |
| 2026-04-29 20:23 | 22.57632 | 120.33507 | 24 ft | 13 kts | 353° |
| 2026-04-29 20:23 | 22.57657 | 120.33505 | 24 ft | 0 kts | 5° |
| 2026-04-29 20:24 | 22.57674 | 120.33505 | 24 ft | 11 kts | 355° |
| 2026-04-29 20:24 | 22.57751 | 120.33556 | 24 ft | 14 kts | 82° |
| 2026-04-29 20:25 | 22.57751 | 120.33606 | 24 ft | 0 kts | 87° |
| 2026-04-29 20:25 | 22.57751 | 120.33607 | 24 ft | 3 kts | 90° |
| 2026-04-29 20:25 | 22.57743 | 120.33816 | 26 ft | 51 kts | 91° |
| 2026-04-29 20:25 | 22.57731 | 120.34339 | 72 ft | 81 kts | 91° |
| 2026-04-29 20:26 | 22.57716 | 120.34986 | 202 ft | 91 kts | 90° |
| 2026-04-29 20:26 | 22.57711 | 120.35702 | 333 ft | 100 kts | 93° |
| 2026-04-29 20:26 | 22.57667 | 120.36469 | 489 ft | 103 kts | 92° |
| 2026-04-29 20:26 | 22.57689 | 120.37256 | 656 ft | 104 kts | 84° |
| 2026-04-29 20:27 | 22.57832 | 120.38018 | 852 ft | 100 kts | 53° |
| 2026-04-29 20:27 | 22.58216 | 120.38288 | 896 ft | 106 kts | 16° |
| 2026-04-29 20:27 | 22.59105 | 120.38194 | 1001 ft | 108 kts | 300° |
| 2026-04-29 20:27 | 22.59237 | 120.37344 | 920 ft | 122 kts | 274° |
| 2026-04-29 20:28 | 22.59244 | 120.36413 | 911 ft | 125 kts | 269° |
| 2026-04-29 20:28 | 22.59234 | 120.35477 | 937 ft | 124 kts | 270° |
| 2026-04-29 20:28 | 22.59576 | 120.34652 | 949 ft | 124 kts | 322° |
| 2026-04-29 20:28 | 22.60413 | 120.34414 | 875 ft | 125 kts | 352° |
| 2026-04-29 20:29 | 22.61267 | 120.34316 | 844 ft | 121 kts | 351° |
| 2026-04-29 20:29 | 22.62085 | 120.34233 | 839 ft | 118 kts | 354° |
| 2026-04-29 20:29 | 22.62911 | 120.34183 | 843 ft | 117 kts | 354° |
| 2026-04-29 20:29 | 22.63724 | 120.34098 | 829 ft | 119 kts | 349° |
| 2026-04-29 20:30 | 22.64546 | 120.34004 | 820 ft | 119 kts | 359° |
| 2026-04-29 20:30 | 22.65381 | 120.34021 | 808 ft | 120 kts | 0° |
| 2026-04-29 20:30 | 22.66205 | 120.34065 | 846 ft | 117 kts | 0° |
| 2026-04-29 20:30 | 22.67020 | 120.34082 | 833 ft | 118 kts | 359° |
| 2026-04-29 20:31 | 22.67843 | 120.34090 | 823 ft | 119 kts | 358° |
| 2026-04-29 20:31 | 22.68677 | 120.34077 | 823 ft | 118 kts | 356° |
| 2026-04-29 20:31 | 22.69477 | 120.34050 | 914 ft | 111 kts | 355° |
| 2026-04-29 20:31 | 22.70246 | 120.34026 | 960 ft | 111 kts | 359° |
| 2026-04-29 20:32 | 22.71040 | 120.34036 | 991 ft | 116 kts | 359° |
| 2026-04-29 20:32 | 22.71853 | 120.34061 | 1020 ft | 118 kts | 0° |
| 2026-04-29 20:32 | 22.72667 | 120.34111 | 1094 ft | 116 kts | 2° |
| 2026-04-29 20:32 | 22.73495 | 120.34150 | 1081 ft | 121 kts | 0° |
| 2026-04-29 20:33 | 22.74353 | 120.34166 | 1031 ft | 126 kts | 360° |
| 2026-04-29 20:33 | 22.75225 | 120.34072 | 1004 ft | 124 kts | 346° |
| 2026-04-29 20:33 | 22.76054 | 120.33832 | 1027 ft | 123 kts | 343° |
| 2026-04-29 20:33 | 22.76874 | 120.33566 | 1031 ft | 123 kts | 342° |
| 2026-04-29 20:34 | 22.77694 | 120.33305 | 1053 ft | 122 kts | 342° |
| 2026-04-29 20:34 | 22.78522 | 120.33053 | 1027 ft | 124 kts | 344° |
| 2026-04-29 20:34 | 22.79327 | 120.32772 | 1082 ft | 121 kts | 335° |
| 2026-04-29 20:34 | 22.80096 | 120.32387 | 1011 ft | 126 kts | 343° |
| 2026-04-29 20:35 | 22.80955 | 120.32241 | 1071 ft | 118 kts | 354° |
| 2026-04-29 20:35 | 22.81685 | 120.32155 | 1308 ft | 106 kts | 356° |
| 2026-04-29 20:35 | 22.82460 | 120.32140 | 1324 ft | 113 kts | 360° |
| 2026-04-29 20:35 | 22.83207 | 120.32122 | 1512 ft | 103 kts | 353° |
| 2026-04-29 20:36 | 22.83932 | 120.31926 | 1539 ft | 112 kts | 342° |
| 2026-04-29 20:36 | 22.84662 | 120.31638 | 1613 ft | 113 kts | 346° |
| 2026-04-29 20:36 | 22.85433 | 120.31410 | 1690 ft | 113 kts | 336° |
| 2026-04-29 20:36 | 22.86185 | 120.31081 | 1652 ft | 121 kts | 340° |
| 2026-04-29 20:37 | 22.86968 | 120.30775 | 1768 ft | 109 kts | 338° |
| 2026-04-29 20:37 | 22.87732 | 120.30418 | 1569 ft | 129 kts | 337° |
| 2026-04-29 20:37 | 22.88543 | 120.30041 | 1567 ft | 125 kts | 338° |
| 2026-04-29 20:37 | 22.89353 | 120.29703 | 1543 ft | 125 kts | 340° |
| 2026-04-29 20:38 | 22.90162 | 120.29376 | 1524 ft | 125 kts | 340° |
| 2026-04-29 20:38 | 22.90981 | 120.29048 | 1499 ft | 125 kts | 341° |
| 2026-04-29 20:38 | 22.91810 | 120.28761 | 1499 ft | 122 kts | 343° |
| 2026-04-29 20:38 | 22.92619 | 120.28507 | 1464 ft | 123 kts | 344° |
| 2026-04-29 20:39 | 22.93435 | 120.28220 | 1466 ft | 122 kts | 338° |
| 2026-04-29 20:39 | 22.94222 | 120.27891 | 1448 ft | 121 kts | 338° |
| 2026-04-29 20:39 | 22.94990 | 120.27549 | 1472 ft | 119 kts | 337° |
| 2026-04-29 20:39 | 22.95769 | 120.27206 | 1480 ft | 120 kts | 339° |
| 2026-04-29 20:40 | 22.96555 | 120.26881 | 1470 ft | 122 kts | 339° |
| 2026-04-29 20:40 | 22.97343 | 120.26546 | 1465 ft | 121 kts | 338° |
| 2026-04-29 20:40 | 22.98111 | 120.26216 | 1523 ft | 117 kts | 338° |
| 2026-04-29 20:40 | 22.98855 | 120.25849 | 1509 ft | 120 kts | 333° |
| 2026-04-29 20:41 | 22.99622 | 120.25478 | 1516 ft | 119 kts | 339° |
| 2026-04-29 20:41 | 23.00401 | 120.25198 | 1519 ft | 120 kts | 346° |
| 2026-04-29 20:41 | 23.01215 | 120.25005 | 1512 ft | 119 kts | 347° |
| 2026-04-29 20:41 | 23.02006 | 120.24732 | 1490 ft | 121 kts | 342° |
| 2026-04-29 20:42 | 23.02811 | 120.24475 | 1538 ft | 117 kts | 343° |
| 2026-04-29 20:42 | 23.03591 | 120.24186 | 1528 ft | 121 kts | 340° |
| 2026-04-29 20:42 | 23.04379 | 120.23895 | 1563 ft | 118 kts | 342° |
| 2026-04-29 20:42 | 23.05207 | 120.23611 | 1401 ft | 130 kts | 345° |
| 2026-04-29 20:43 | 23.06076 | 120.23379 | 1280 ft | 131 kts | 348° |
| 2026-04-29 20:43 | 23.07001 | 120.23213 | 1084 ft | 136 kts | 353° |
| 2026-04-29 20:43 | 23.07917 | 120.23120 | 1056 ft | 130 kts | 356° |
| 2026-04-29 20:43 | 23.08808 | 120.23099 | 1033 ft | 126 kts | 0° |
| 2026-04-29 20:44 | 23.09666 | 120.23139 | 1023 ft | 121 kts | 4° |
| 2026-04-29 20:44 | 23.10499 | 120.23094 | 980 ft | 120 kts | 347° |
| 2026-04-29 20:44 | 23.11303 | 120.22820 | 945 ft | 119 kts | 342° |
| 2026-04-29 20:44 | 23.12070 | 120.22523 | 930 ft | 117 kts | 339° |
| 2026-04-29 20:45 | 23.12834 | 120.22204 | 906 ft | 118 kts | 339° |
| 2026-04-29 20:45 | 23.13610 | 120.21892 | 865 ft | 120 kts | 340° |
| 2026-04-29 20:45 | 23.14397 | 120.21588 | 858 ft | 118 kts | 342° |
| 2026-04-29 20:45 | 23.15168 | 120.21301 | 853 ft | 116 kts | 341° |
| 2026-04-29 20:46 | 23.15944 | 120.21036 | 851 ft | 116 kts | 344° |
| 2026-04-29 20:46 | 23.16697 | 120.20745 | 840 ft | 116 kts | 335° |
| 2026-04-29 20:46 | 23.17356 | 120.20244 | 839 ft | 114 kts | 322° |
| 2026-04-29 20:46 | 23.17975 | 120.19685 | 809 ft | 118 kts | 321° |
| 2026-04-29 20:47 | 23.18603 | 120.19109 | 794 ft | 117 kts | 322° |
| 2026-04-29 20:47 | 23.19294 | 120.18669 | 784 ft | 116 kts | 339° |
| 2026-04-29 20:47 | 23.20056 | 120.18369 | 790 ft | 115 kts | 341° |
| 2026-04-29 20:47 | 23.20549 | 120.18165 | 804 ft | 113 kts | 339° |
| 2026-04-29 20:48 | 23.21531 | 120.17752 | 801 ft | 112 kts | 339° |
| 2026-04-29 20:48 | 23.22269 | 120.17472 | 793 ft | 113 kts | 344° |
| 2026-04-29 20:48 | 23.23015 | 120.17227 | 825 ft | 111 kts | 344° |
| 2026-04-29 20:48 | 23.23760 | 120.16999 | 852 ft | 111 kts | 345° |
| 2026-04-29 20:49 | 23.24508 | 120.16811 | 885 ft | 110 kts | 353° |
| 2026-04-29 20:49 | 23.25281 | 120.16762 | 856 ft | 113 kts | 359° |
| 2026-04-29 20:49 | 23.26047 | 120.16810 | 922 ft | 108 kts | 9° |
| 2026-04-29 20:49 | 23.26802 | 120.16970 | 895 ft | 113 kts | 11° |
| 2026-04-29 20:50 | 23.27558 | 120.17017 | 931 ft | 111 kts | 345° |
| 2026-04-29 20:50 | 23.28171 | 120.16491 | 896 ft | 117 kts | 306° |
| 2026-04-29 20:50 | 23.28477 | 120.15682 | 941 ft | 114 kts | 284° |
| 2026-04-29 20:50 | 23.28536 | 120.14808 | 933 ft | 117 kts | 275° |
| 2026-04-29 20:51 | 23.28575 | 120.13926 | 942 ft | 118 kts | 274° |
| 2026-04-29 20:51 | 23.28568 | 120.13040 | 991 ft | 116 kts | 268° |
| 2026-04-29 20:51 | 23.28554 | 120.12162 | 986 ft | 118 kts | 271° |
| 2026-04-29 20:51 | 23.28463 | 120.11275 | 1006 ft | 118 kts | 258° |
| 2026-04-29 20:52 | 23.28252 | 120.10402 | 972 ft | 122 kts | 259° |
| 2026-04-29 20:52 | 23.28168 | 120.09497 | 1034 ft | 115 kts | 271° |
| 2026-04-29 20:52 | 23.28169 | 120.08622 | 1027 ft | 120 kts | 275° |
| 2026-04-29 20:52 | 23.28317 | 120.07752 | 969 ft | 119 kts | 303° |
| 2026-04-29 20:53 | 23.28929 | 120.07189 | 1031 ft | 104 kts | 334° |
| 2026-04-29 20:53 | 23.29486 | 120.06754 | 1084 ft | 109 kts | 317° |
| 2026-04-29 20:53 | 23.29990 | 120.06056 | 967 ft | 117 kts | 312° |
| 2026-04-29 20:53 | 23.30331 | 120.05333 | 1117 ft | 110 kts | 286° |
| 2026-04-29 20:54 | 23.29674 | 120.03725 | 1090 ft | 118 kts | 220° |
| 2026-04-29 20:54 | 23.29177 | 120.03000 | 984 ft | 125 kts | 252° |
| 2026-04-29 20:54 | 23.29038 | 120.02105 | 1037 ft | 113 kts | 275° |
| 2026-04-29 20:55 | 23.29049 | 120.01254 | 1073 ft | 115 kts | 274° |
| 2026-04-29 20:55 | 23.29032 | 120.00366 | 1053 ft | 119 kts | 267° |
| 2026-04-29 20:55 | 23.28734 | 119.99517 | 1045 ft | 120 kts | 254° |
| 2026-04-29 20:55 | 23.28692 | 119.98637 | 1047 ft | 117 kts | 277° |
| 2026-04-29 20:56 | 23.28726 | 119.98036 | 1048 ft | 118 kts | 277° |
| 2026-04-29 20:56 | 23.28781 | 119.97136 | 1049 ft | 119 kts | 278° |
| 2026-04-29 20:56 | 23.28842 | 119.96239 | 1050 ft | 119 kts | 278° |
| 2026-04-29 20:56 | 23.28904 | 119.95341 | 1050 ft | 119 kts | 279° |
| 2026-04-29 20:57 | 23.28970 | 119.94442 | 1051 ft | 120 kts | 279° |
| 2026-04-29 20:57 | 23.29035 | 119.93538 | 1052 ft | 120 kts | 278° |
| 2026-04-29 20:57 | 23.29099 | 119.92632 | 1053 ft | 121 kts | 279° |
| 2026-04-29 20:57 | 23.29166 | 119.91719 | 1054 ft | 122 kts | 278° |
| 2026-04-29 20:58 | 23.29231 | 119.90804 | 1055 ft | 121 kts | 278° |
| 2026-04-29 20:58 | 23.29297 | 119.89891 | 1055 ft | 121 kts | 279° |
| 2026-04-29 20:58 | 23.29362 | 119.88977 | 1055 ft | 121 kts | 279° |
| 2026-04-29 20:58 | 23.29427 | 119.88066 | 1054 ft | 121 kts | 278° |
| 2026-04-29 20:59 | 23.29493 | 119.87153 | 1054 ft | 121 kts | 278° |
| 2026-04-29 20:59 | 23.29559 | 119.86240 | 1054 ft | 121 kts | 279° |
| 2026-04-29 20:59 | 23.29624 | 119.85329 | 1054 ft | 121 kts | 279° |
| 2026-04-29 20:59 | 23.29689 | 119.84416 | 1053 ft | 121 kts | 279° |
| 2026-04-29 21:00 | 23.29756 | 119.83500 | 1054 ft | 121 kts | 279° |
| 2026-04-29 21:00 | 23.29821 | 119.82589 | 1053 ft | 121 kts | 279° |
| 2026-04-29 21:00 | 23.29884 | 119.81676 | 1054 ft | 122 kts | 279° |
| 2026-04-29 21:00 | 23.29950 | 119.80757 | 1054 ft | 122 kts | 279° |
| 2026-04-29 21:01 | 23.30016 | 119.79838 | 1054 ft | 122 kts | 279° |
| 2026-04-29 21:01 | 23.30082 | 119.78919 | 1053 ft | 122 kts | 279° |
| 2026-04-29 21:01 | 23.30146 | 119.78004 | 1053 ft | 121 kts | 279° |
| 2026-04-29 21:01 | 23.30211 | 119.77091 | 1053 ft | 122 kts | 279° |
| 2026-04-29 21:02 | 23.30277 | 119.76177 | 1053 ft | 121 kts | 279° |
| 2026-04-29 21:02 | 23.30342 | 119.75265 | 1053 ft | 120 kts | 279° |
| 2026-04-29 21:02 | 23.30406 | 119.74354 | 1053 ft | 121 kts | 279° |
| 2026-04-29 21:02 | 23.30471 | 119.73441 | 1053 ft | 121 kts | 279° |
| 2026-04-29 21:03 | 23.30536 | 119.72526 | 1053 ft | 122 kts | 279° |
| 2026-04-29 21:03 | 23.30602 | 119.71601 | 1054 ft | 122 kts | 279° |
| 2026-04-29 21:03 | 23.30667 | 119.70680 | 1053 ft | 122 kts | 279° |
| 2026-04-29 21:03 | 23.30732 | 119.69755 | 1054 ft | 123 kts | 279° |
| 2026-04-29 21:04 | 23.30797 | 119.68826 | 1054 ft | 123 kts | 279° |
| 2026-04-29 21:04 | 23.30861 | 119.67897 | 1048 ft | 123 kts | 279° |
| 2026-04-29 21:04 | 23.31080 | 119.67033 | 1047 ft | 117 kts | 298° |
| 2026-04-29 21:04 | 23.31379 | 119.66201 | 1049 ft | 119 kts | 296° |
| 2026-04-29 21:05 | 23.31673 | 119.65360 | 1050 ft | 119 kts | 296° |
| 2026-04-29 21:05 | 23.31968 | 119.64519 | 1051 ft | 119 kts | 297° |
| 2026-04-29 21:05 | 23.32266 | 119.63669 | 1051 ft | 118 kts | 297° |
| 2026-04-29 21:05 | 23.32559 | 119.62831 | 1051 ft | 119 kts | 296° |
| 2026-04-29 21:06 | 23.32854 | 119.61987 | 1051 ft | 119 kts | 296° |
| 2026-04-29 21:06 | 23.33147 | 119.61146 | 1051 ft | 119 kts | 296° |
| 2026-04-29 21:06 | 23.33444 | 119.60301 | 1051 ft | 119 kts | 296° |
| 2026-04-29 21:06 | 23.33738 | 119.59458 | 1051 ft | 119 kts | 296° |
| 2026-04-29 21:07 | 23.34030 | 119.58622 | 1051 ft | 118 kts | 296° |
| 2026-04-29 21:07 | 23.34322 | 119.57785 | 1051 ft | 119 kts | 296° |
| 2026-04-29 21:07 | 23.34616 | 119.56947 | 1051 ft | 118 kts | 296° |
| 2026-04-29 21:07 | 23.34909 | 119.56106 | 1051 ft | 118 kts | 296° |
| 2026-04-29 21:08 | 23.35200 | 119.55270 | 1051 ft | 119 kts | 296° |
| 2026-04-29 21:08 | 23.35494 | 119.54431 | 1051 ft | 118 kts | 297° |
| 2026-04-29 21:08 | 23.35785 | 119.53601 | 1051 ft | 118 kts | 296° |
| 2026-04-29 21:08 | 23.36076 | 119.52767 | 1050 ft | 118 kts | 296° |
| 2026-04-29 21:09 | 23.36365 | 119.51934 | 1050 ft | 118 kts | 296° |
| 2026-04-29 21:09 | 23.36650 | 119.51127 | 1057 ft | 107 kts | 298° |
| 2026-04-29 21:09 | 23.36892 | 119.50455 | 1148 ft | 89 kts | 297° |
| 2026-04-29 21:09 | 23.37090 | 119.49809 | 1136 ft | 92 kts | 294° |
| 2026-04-29 21:10 | 23.36923 | 119.49216 | 1243 ft | 90 kts | 212° |
| 2026-04-29 21:10 | 23.36262 | 119.48942 | 1064 ft | 104 kts | 195° |
| 2026-04-29 21:10 | 23.35581 | 119.48839 | 949 ft | 100 kts | 179° |
| 2026-04-29 21:10 | 23.35017 | 119.49055 | 919 ft | 83 kts | 115° |
| 2026-04-29 21:11 | 23.35043 | 119.49590 | 920 ft | 74 kts | 50° |
| 2026-04-29 21:11 | 23.35496 | 119.49830 | 694 ft | 77 kts | 20° |
| 2026-04-29 21:11 | 23.36007 | 119.50010 | 423 ft | 73 kts | 21° |
| 2026-04-29 21:11 | 23.36453 | 119.50173 | 191 ft | 63 kts | 20° |
| 2026-04-29 21:12 | 23.36808 | 119.50318 | 106 ft | 37 kts | 17° |
| 2026-04-29 21:12 | 23.36891 | 119.50353 | 105 ft | 2 kts | 279° |
| 2026-04-29 21:12 | 23.36832 | 119.50325 | 106 ft | 17 kts | 199° |
| 2026-04-29 21:12 | 23.36741 | 119.50259 | 106 ft | 14 kts | 221° |
| 2026-04-29 21:13 | 23.36698 | 119.50236 | 106 ft | 0 kts | 202° |
| 2026-04-29 21:13 | 23.36693 | 119.50232 | 106 ft | 1 kts | 216° |
| 2026-04-29 21:23 | 23.36694 | 119.50232 | 106 ft | 0 kts | 217° |